Time;durP1;ratioP1;P1;durP2;ratioP2;P2;SDS_P1;SDS_P2;PMS_P1;PMS_P2;Temp;Humidity;BMP_temperature;BMP_pressure;BME280_temperature;BME280_humidity;BME280_pressure;Samples;Min_cycle;Max_cycle;Signal;HPM_P1;HPM_P2
2023/01/12 00:01:14;;;;;;;;;;;11.60;99.90;;;;;;5050261;28;19995;-76
2023/01/12 00:03:39;;;;;;;;;;;11.50;99.90;;;;;;5050453;28;19921;-76
2023/01/12 00:06:08;;;;;;;;;;;11.50;99.90;;;;;;5049904;28;19913;-75
2023/01/12 00:08:34;;;;;;;;;;;11.60;99.90;;;;;;5050420;28;19928;-76
2023/01/12 00:11:00;;;;;;;;;;;11.60;99.90;;;;;;5049450;28;20246;-75
2023/01/12 00:13:27;;;;;;;;;;;11.60;99.90;;;;;;5050417;28;19920;-76
2023/01/12 00:18:39;;;;;;;;;;;11.60;99.90;;;;;;5050228;28;19963;-77
2023/01/12 00:21:06;;;;;;;;;;;11.60;99.90;;;;;;5049885;28;19913;-76
2023/01/12 00:23:31;;;;;;;;;;;11.60;99.90;;;;;;5050019;28;19947;-75
2023/01/12 00:25:57;;;;;;;;;;;11.60;99.90;;;;;;5049646;28;19913;-75
2023/01/12 00:28:23;;;;;;;;;;;11.60;99.90;;;;;;5050364;28;20353;-75
2023/01/12 00:30:48;;;;;;;;;;;11.60;99.90;;;;;;5050335;28;20266;-76
2023/01/12 00:33:14;;;;;;;;;;;11.70;99.90;;;;;;5049680;28;19944;-76
2023/01/12 00:35:39;;;;;;;;;;;11.70;99.90;;;;;;5050167;28;19917;-78
2023/01/12 00:38:07;;;;;;;;;;;11.60;99.90;;;;;;5049798;28;20385;-77
2023/01/12 00:40:35;;;;;;;;;;;11.60;99.90;;;;;;5050368;28;19913;-78
2023/01/12 00:45:48;;;;;;;;;;;11.40;99.90;;;;;;5050179;28;19935;-77
2023/01/12 00:48:14;;;;;;;;;;;11.30;99.90;;;;;;5049766;28;20008;-78
2023/01/12 00:50:39;;;;;;;;;;;11.30;99.90;;;;;;5048519;28;19917;-77
2023/01/12 00:53:05;;;;;;;;;;;11.30;99.90;;;;;;5049572;28;19928;-77
2023/01/12 00:55:31;;;;;;;;;;;11.30;99.90;;;;;;5050159;28;19944;-77
2023/01/12 00:57:56;;;;;;;;;;;11.30;99.90;;;;;;5050648;28;20334;-78
2023/01/12 01:00:22;;;;;;;;;;;11.30;99.90;;;;;;5050799;28;19919;-81
2023/01/12 01:02:48;;;;;;;;;;;11.30;99.90;;;;;;5049017;28;19916;-77
2023/01/12 01:05:14;;;;;;;;;;;11.20;99.90;;;;;;5053481;28;20092;-77
2023/01/12 01:07:39;;;;;;;;;;;11.20;99.90;;;;;;5054011;28;19944;-80
2023/01/12 01:10:05;;;;;;;;;;;11.10;99.90;;;;;;5052024;28;20391;-80
2023/01/12 01:12:31;;;;;;;;;;;11.10;99.90;;;;;;5053334;28;19920;-80
2023/01/12 01:14:57;;;;;;;;;;;11.00;99.90;;;;;;5053078;28;19914;-80
2023/01/12 01:17:22;;;;;;;;;;;10.90;99.90;;;;;;5053536;28;20324;-80
2023/01/12 01:19:48;;;;;;;;;;;10.90;99.90;;;;;;5053506;28;20006;-78
2023/01/12 01:22:14;;;;;;;;;;;10.90;99.90;;;;;;5058869;28;19966;-79
2023/01/12 01:24:40;;;;;;;;;;;10.80;99.90;;;;;;5073449;28;19996;-78
2023/01/12 01:27:05;;;;;;;;;;;10.80;99.90;;;;;;5072923;28;19908;-80
2023/01/12 01:29:31;;;;;;;;;;;10.80;99.90;;;;;;5073225;28;20261;-79
2023/01/12 01:31:56;;;;;;;;;;;10.80;99.90;;;;;;5072317;28;19948;-79
2023/01/12 01:34:25;;;;;;;;;;;10.80;99.90;;;;;;5073138;28;19908;-79
2023/01/12 01:36:50;;;;;;;;;;;10.90;99.90;;;;;;5072828;28;19909;-85
2023/01/12 01:39:16;;;;;;;;;;;10.90;99.90;;;;;;5072751;28;19936;-79
2023/01/12 01:41:41;;;;;;;;;;;10.90;99.90;;;;;;5072874;28;19916;-78
2023/01/12 01:44:26;;;;;;;;;;;10.90;99.90;;;;;;5072910;28;19916;-79
2023/01/12 01:46:57;;;;;;;;;;;11.00;99.90;;;;;;5072719;28;19908;-83
2023/01/12 01:49:26;;;;;;;;;;;11.00;99.90;;;;;;5072207;28;20393;-80
2023/01/12 01:51:58;;;;;;;;;;;11.00;99.90;;;;;;5072463;28;19942;-84
2023/01/12 01:54:24;;;;;;;;;;;10.90;99.90;;;;;;5072951;28;19939;-79
2023/01/12 01:56:51;;;;;;;;;;;10.90;99.90;;;;;;5072465;28;19912;-78
2023/01/12 01:59:21;;;;;;;;;;;10.90;99.90;;;;;;5072704;28;19912;-80
2023/01/12 02:01:47;;;;;;;;;;;10.90;99.90;;;;;;5072814;28;19920;-78
2023/01/12 02:04:13;;;;;;;;;;;11.00;99.90;;;;;;5071869;28;19909;-78
2023/01/12 02:06:38;;;;;;;;;;;10.90;99.90;;;;;;5072507;28;20018;-77
2023/01/12 02:09:14;;;;;;;;;;;10.90;99.90;;;;;;5072094;28;19920;-78
2023/01/12 02:17:14;;;;;;;;;;;10.90;99.90;;;;;;5071675;28;19993;-80
2023/01/12 02:20:04;;;;;;;;;;;10.90;99.90;;;;;;5072653;28;19908;-77
2023/01/12 02:22:29;;;;;;;;;;;11.00;99.90;;;;;;5072270;28;20338;-80
2023/01/12 02:25:13;;;;;;;;;;;11.00;99.90;;;;;;5058331;28;19913;-79
2023/01/12 02:27:57;;;;;;;;;;;10.90;99.90;;;;;;5051993;28;19909;-77
2023/01/12 02:30:26;;;;;;;;;;;10.90;99.90;;;;;;5052997;28;19919;-78
2023/01/12 02:32:55;;;;;;;;;;;10.90;99.90;;;;;;5052469;28;19916;-85
2023/01/12 02:35:20;;;;;;;;;;;10.80;99.90;;;;;;5052525;28;19944;-79
2023/01/12 02:37:58;;;;;;;;;;;10.80;99.90;;;;;;5051317;28;19909;-78
2023/01/12 02:40:24;;;;;;;;;;;10.80;99.90;;;;;;5052505;28;20379;-77
2023/01/12 02:43:10;;;;;;;;;;;10.80;99.90;;;;;;5052275;28;19917;-78
2023/01/12 02:45:46;;;;;;;;;;;10.80;99.90;;;;;;5052440;28;19916;-79
2023/01/12 02:48:16;;;;;;;;;;;10.80;99.90;;;;;;5050353;28;19912;-77
2023/01/12 02:50:48;;;;;;;;;;;10.80;99.90;;;;;;5051954;28;19909;-77
2023/01/12 02:53:28;;;;;;;;;;;10.80;99.90;;;;;;5049937;28;20478;-77
2023/01/12 02:55:55;;;;;;;;;;;10.70;99.90;;;;;;5052230;28;19909;-86
2023/01/12 02:58:22;;;;;;;;;;;10.70;99.90;;;;;;5052777;28;20345;-78
2023/01/12 03:00:49;;;;;;;;;;;10.70;99.90;;;;;;5052503;28;19913;-77
2023/01/12 03:03:16;;;;;;;;;;;10.70;99.90;;;;;;5052068;28;19920;-78
2023/01/12 03:05:42;;;;;;;;;;;10.70;99.90;;;;;;5052353;28;19920;-78
2023/01/12 03:08:13;;;;;;;;;;;10.80;99.90;;;;;;5051415;28;19908;-77
2023/01/12 03:10:51;;;;;;;;;;;10.80;99.90;;;;;;5052132;28;19916;-78
2023/01/12 03:13:16;;;;;;;;;;;10.80;99.90;;;;;;5052033;28;19909;-78
2023/01/12 03:15:45;;;;;;;;;;;10.90;99.90;;;;;;5051837;28;19908;-77
2023/01/12 03:18:34;;;;;;;;;;;10.90;99.90;;;;;;5051231;28;19915;-77
2023/01/12 03:21:04;;;;;;;;;;;11.00;99.90;;;;;;5040422;28;20334;-78
2023/01/12 03:23:41;;;;;;;;;;;11.00;99.90;;;;;;5051456;28;19982;-78
2023/01/12 03:26:08;;;;;;;;;;;11.00;99.90;;;;;;5050311;28;19909;-78
2023/01/12 03:28:36;;;;;;;;;;;11.00;99.90;;;;;;5051456;28;19999;-78
2023/01/12 03:31:07;;;;;;;;;;;11.00;99.90;;;;;;5051051;28;19928;-78
2023/01/12 03:33:33;;;;;;;;;;;11.00;99.90;;;;;;5065271;28;19916;-77
2023/01/12 03:36:14;;;;;;;;;;;11.00;99.90;;;;;;5069999;28;20306;-78
2023/01/12 03:38:43;;;;;;;;;;;10.90;99.90;;;;;;5071286;28;19909;-78
2023/01/12 03:41:11;;;;;;;;;;;10.90;99.90;;;;;;5069345;28;19952;-77
2023/01/12 03:43:44;;;;;;;;;;;10.80;99.90;;;;;;5071488;28;20011;-76
2023/01/12 03:46:23;;;;;;;;;;;10.90;99.90;;;;;;5070834;28;19908;-78
2023/01/12 03:48:51;;;;;;;;;;;10.80;99.90;;;;;;5070924;28;19909;-78
2023/01/12 03:51:22;;;;;;;;;;;10.80;99.90;;;;;;5070658;28;19912;-78
2023/01/12 03:53:49;;;;;;;;;;;10.80;99.90;;;;;;5070777;28;20274;-78
2023/01/12 03:56:16;;;;;;;;;;;10.70;99.90;;;;;;5070386;28;19915;-79
2023/01/12 03:58:42;;;;;;;;;;;10.60;99.90;;;;;;5070906;28;19909;-78
2023/01/12 04:01:07;;;;;;;;;;;10.50;99.90;;;;;;5071119;28;20454;-79
2023/01/12 04:03:33;;;;;;;;;;;10.50;99.90;;;;;;5071992;28;19972;-78
2023/01/12 04:05:58;;;;;;;;;;;10.50;99.90;;;;;;5070195;28;19915;-83
2023/01/12 04:08:24;;;;;;;;;;;10.50;99.90;;;;;;5071641;28;20392;-77
2023/01/12 04:10:50;;;;;;;;;;;10.50;99.90;;;;;;5069615;28;19985;-77
2023/01/12 04:13:15;;;;;;;;;;;10.60;99.90;;;;;;5069900;28;19915;-77
2023/01/12 04:15:41;;;;;;;;;;;10.60;99.90;;;;;;5071141;28;20347;-77
2023/01/12 04:18:10;;;;;;;;;;;10.50;99.90;;;;;;5070292;28;19916;-77
2023/01/12 04:20:36;;;;;;;;;;;10.50;99.90;;;;;;5070916;28;20256;-77
2023/01/12 04:23:02;;;;;;;;;;;10.50;99.90;;;;;;5070009;28;20380;-77
2023/01/12 04:25:27;;;;;;;;;;;10.50;99.90;;;;;;5070603;28;19908;-77
2023/01/12 04:28:03;;;;;;;;;;;10.50;99.90;;;;;;5069413;28;19935;-77
2023/01/12 04:30:30;;;;;;;;;;;10.40;99.90;;;;;;5071053;28;19977;-78
2023/01/12 04:32:56;;;;;;;;;;;10.40;99.90;;;;;;5070472;28;19956;-76
2023/01/12 04:35:23;;;;;;;;;;;10.40;99.90;;;;;;5070439;28;19939;-77
2023/01/12 04:37:49;;;;;;;;;;;10.40;99.90;;;;;;5072225;28;19908;-77
2023/01/12 04:40:14;;;;;;;;;;;10.40;99.90;;;;;;5074201;28;19920;-77
2023/01/12 04:43:07;;;;;;;;;;;10.40;99.90;;;;;;5074752;28;19917;-78
2023/01/12 04:45:34;;;;;;;;;;;10.30;99.90;;;;;;5074537;28;19908;-78
2023/01/12 04:48:01;;;;;;;;;;;10.30;99.90;;;;;;5074064;28;20336;-82
2023/01/12 04:50:27;;;;;;;;;;;10.40;99.90;;;;;;5074437;28;19916;-77
2023/01/12 04:52:52;;;;;;;;;;;10.40;99.90;;;;;;5074082;28;20422;-77
2023/01/12 04:55:18;;;;;;;;;;;10.30;99.90;;;;;;5074415;28;19912;-77
2023/01/12 04:57:45;;;;;;;;;;;10.30;99.90;;;;;;5073928;28;20289;-78
2023/01/12 05:00:11;;;;;;;;;;;10.30;99.90;;;;;;5074183;28;20414;-78
2023/01/12 05:02:37;;;;;;;;;;;10.30;99.90;;;;;;5074428;28;19916;-78
2023/01/12 05:05:04;;;;;;;;;;;10.30;99.90;;;;;;5074669;28;20282;-85
2023/01/12 05:07:29;;;;;;;;;;;10.30;99.90;;;;;;5074668;28;19909;-78
2023/01/12 05:12:39;;;;;;;;;;;10.30;99.90;;;;;;5074583;28;19915;-78
2023/01/12 05:15:05;;;;;;;;;;;10.40;99.90;;;;;;5066180;28;20309;-84
2023/01/12 05:17:31;;;;;;;;;;;10.40;99.90;;;;;;5052534;28;19917;-78
2023/01/12 05:19:56;;;;;;;;;;;10.40;99.90;;;;;;5054061;28;19909;-78
2023/01/12 05:22:24;;;;;;;;;;;10.40;99.90;;;;;;5052707;28;21288;-78
2023/01/12 05:24:49;;;;;;;;;;;10.50;99.90;;;;;;5065791;28;19913;-78
2023/01/12 05:27:15;;;;;;;;;;;10.50;99.90;;;;;;5073715;28;19913;-78
2023/01/12 05:29:41;;;;;;;;;;;10.50;99.90;;;;;;5072720;28;19912;-78
2023/01/12 05:32:06;;;;;;;;;;;10.50;99.90;;;;;;5073414;28;19944;-80
2023/01/12 05:34:32;;;;;;;;;;;10.50;99.90;;;;;;5074421;28;20392;-78
2023/01/12 05:36:57;;;;;;;;;;;10.40;99.90;;;;;;5073601;28;19938;-77
2023/01/12 05:39:23;;;;;;;;;;;10.40;99.90;;;;;;5073562;28;19953;-78
2023/01/12 05:44:33;;;;;;;;;;;10.40;99.90;;;;;;5073866;28;19920;-78
2023/01/12 05:46:58;;;;;;;;;;;10.30;99.90;;;;;;5073513;28;19908;-78
2023/01/12 05:49:24;;;;;;;;;;;10.30;99.90;;;;;;5072715;28;20202;-78
2023/01/12 05:51:50;;;;;;;;;;;10.40;99.90;;;;;;5073478;28;19915;-78
2023/01/12 05:54:15;;;;;;;;;;;10.40;99.90;;;;;;5073392;28;20015;-78
2023/01/12 05:56:41;;;;;;;;;;;10.50;99.90;;;;;;5073137;28;19968;-78
2023/01/12 05:59:09;;;;;;;;;;;10.50;99.90;;;;;;5072773;28;19909;-85
2023/01/12 06:01:35;;;;;;;;;;;10.60;99.90;;;;;;5054330;28;19923;-78
2023/01/12 06:04:00;;;;;;;;;;;10.70;99.90;;;;;;5053409;28;20301;-79
2023/01/12 06:06:29;;;;;;;;;;;10.60;99.90;;;;;;5052568;28;19916;-78
2023/01/12 06:08:55;;;;;;;;;;;10.70;99.90;;;;;;5053147;28;19916;-78
2023/01/12 06:14:12;;;;;;;;;;;10.80;99.90;;;;;;5028682;28;19993;-79
2023/01/12 06:16:38;;;;;;;;;;;10.80;99.90;;;;;;5072985;28;19912;-77
2023/01/12 06:19:04;;;;;;;;;;;10.80;99.90;;;;;;5072687;28;19908;-77
2023/01/12 06:21:30;;;;;;;;;;;10.90;99.90;;;;;;5072739;28;19974;-78
2023/01/12 06:23:56;;;;;;;;;;;10.90;99.90;;;;;;5072049;28;19916;-78
2023/01/12 06:26:21;;;;;;;;;;;10.90;99.90;;;;;;5071508;28;19999;-78
2023/01/12 06:28:47;;;;;;;;;;;10.90;99.90;;;;;;5073114;28;19915;-79
2023/01/12 06:31:13;;;;;;;;;;;10.90;99.90;;;;;;5072355;28;19912;-78
2023/01/12 06:33:38;;;;;;;;;;;10.90;99.90;;;;;;5072972;28;19908;-77
2023/01/12 06:36:04;;;;;;;;;;;10.90;99.90;;;;;;5066302;28;19920;-77
2023/01/12 06:38:31;;;;;;;;;;;10.80;99.90;;;;;;5051966;28;20443;-77
2023/01/12 06:41:00;;;;;;;;;;;10.80;99.90;;;;;;5053862;28;19909;-78
2023/01/12 06:43:26;;;;;;;;;;;10.90;99.90;;;;;;5052881;28;19979;-78
2023/01/12 06:45:52;;;;;;;;;;;10.90;99.90;;;;;;5052952;28;20053;-78
2023/01/12 06:48:21;;;;;;;;;;;10.90;99.90;;;;;;5051677;28;19916;-78
2023/01/12 06:50:46;;;;;;;;;;;11.00;99.90;;;;;;5052134;28;20289;-78
2023/01/12 06:53:12;;;;;;;;;;;11.00;99.90;;;;;;5051791;28;19927;-79
2023/01/12 06:55:37;;;;;;;;;;;11.00;99.90;;;;;;5052130;28;19916;-77
2023/01/12 06:58:03;;;;;;;;;;;11.00;99.90;;;;;;5052837;28;20366;-78
2023/01/12 07:00:29;;;;;;;;;;;11.00;99.90;;;;;;5051586;28;20655;-77
2023/01/12 07:02:55;;;;;;;;;;;11.00;99.90;;;;;;5051796;28;19925;-77
2023/01/12 07:05:20;;;;;;;;;;;11.00;99.90;;;;;;5052016;28;19909;-77
2023/01/12 07:07:46;;;;;;;;;;;11.00;99.90;;;;;;5052495;28;19908;-78
2023/01/12 07:10:12;;;;;;;;;;;11.10;99.90;;;;;;5050660;28;19916;-86
2023/01/12 07:12:38;;;;;;;;;;;11.20;99.90;;;;;;5052292;28;19939;-77
2023/01/12 07:15:03;;;;;;;;;;;11.20;99.90;;;;;;5051090;28;20349;-77
2023/01/12 07:17:29;;;;;;;;;;;11.20;99.90;;;;;;5051527;28;19915;-77
2023/01/12 07:19:55;;;;;;;;;;;11.10;99.90;;;;;;5051954;28;19909;-78
2023/01/12 07:22:20;;;;;;;;;;;11.10;99.90;;;;;;5052658;28;19917;-78
2023/01/12 07:24:46;;;;;;;;;;;11.00;99.90;;;;;;5071680;28;19939;-78
2023/01/12 07:27:12;;;;;;;;;;;11.00;99.90;;;;;;5071774;28;20304;-82
2023/01/12 07:29:38;;;;;;;;;;;11.10;99.90;;;;;;5071096;28;19955;-77
2023/01/12 07:32:04;;;;;;;;;;;11.10;99.90;;;;;;5070323;28;20396;-77
2023/01/12 07:34:30;;;;;;;;;;;11.10;99.90;;;;;;5071211;28;20271;-77
2023/01/12 07:36:55;;;;;;;;;;;11.20;99.90;;;;;;5071782;28;19962;-77
2023/01/12 07:39:21;;;;;;;;;;;11.20;99.90;;;;;;5070987;28;20320;-77
2023/01/12 07:44:30;;;;;;;;;;;11.10;99.90;;;;;;5059145;28;20038;-77
2023/01/12 07:46:58;;;;;;;;;;;11.00;99.90;;;;;;5051557;28;19920;-77
2023/01/12 07:49:24;;;;;;;;;;;11.00;99.90;;;;;;5067480;28;19912;-77
2023/01/12 07:51:51;;;;;;;;;;;10.90;99.90;;;;;;5071173;28;20023;-77
2023/01/12 07:54:17;;;;;;;;;;;11.00;99.90;;;;;;5071012;28;19915;-77
2023/01/12 07:56:42;;;;;;;;;;;10.90;99.90;;;;;;5071270;28;19909;-77
2023/01/12 07:59:08;;;;;;;;;;;10.90;99.90;;;;;;5071532;28;19916;-78
2023/01/12 08:01:34;;;;;;;;;;;10.90;99.90;;;;;;5070587;28;19916;-78
2023/01/12 08:04:00;;;;;;;;;;;11.00;99.90;;;;;;5071267;28;19908;-77
2023/01/12 08:06:25;;;;;;;;;;;11.00;99.90;;;;;;5070499;28;19916;-77
2023/01/12 08:08:52;;;;;;;;;;;11.00;99.90;;;;;;5071437;28;20058;-79
2023/01/12 08:11:17;;;;;;;;;;;11.00;99.90;;;;;;5070608;28;19909;-86
2023/01/12 08:13:43;;;;;;;;;;;11.00;99.90;;;;;;5071404;28;20265;-79
2023/01/12 08:16:17;;;;;;;;;;;11.00;99.90;;;;;;5070878;28;19993;-78
2023/01/12 08:18:55;;;;;;;;;;;10.90;99.90;;;;;;5071726;28;19909;-78
2023/01/12 08:21:23;;;;;;;;;;;10.80;99.90;;;;;;5062223;28;20354;-77
2023/01/12 08:23:50;;;;;;;;;;;10.80;99.90;;;;;;5060769;28;20004;-76
2023/01/12 08:26:18;;;;;;;;;;;10.80;99.90;;;;;;5056595;28;19909;-83
2023/01/12 08:28:46;;;;;;;;;;;10.70;99.90;;;;;;5052201;28;19974;-77
2023/01/12 08:31:14;;;;;;;;;;;10.70;99.90;;;;;;5051314;28;19944;-77
2023/01/12 08:33:40;;;;;;;;;;;10.60;99.90;;;;;;5051004;28;19915;-78
2023/01/12 08:36:08;;;;;;;;;;;10.60;99.90;;;;;;5053671;28;19996;-77
2023/01/12 08:38:33;;;;;;;;;;;10.50;99.90;;;;;;5060974;28;19917;-78
2023/01/12 08:44:01;;;;;;;;;;;10.40;99.90;;;;;;5060091;28;19924;-77
2023/01/12 08:46:36;;;;;;;;;;;10.40;99.90;;;;;;5069018;28;20249;-77
2023/01/12 08:49:03;;;;;;;;;;;10.30;99.90;;;;;;5070691;28;20338;-77
2023/01/12 08:51:29;;;;;;;;;;;10.30;99.90;;;;;;5070134;28;19916;-77
2023/01/12 08:53:54;;;;;;;;;;;10.30;99.90;;;;;;5070446;28;20289;-77
2023/01/12 08:56:20;;;;;;;;;;;10.30;99.90;;;;;;5070407;28;19963;-82
2023/01/12 08:58:47;;;;;;;;;;;10.30;99.90;;;;;;5070856;28;19943;-78
2023/01/12 09:01:14;;;;;;;;;;;10.20;99.90;;;;;;5054825;28;19957;-77
2023/01/12 09:03:40;;;;;;;;;;;10.30;99.90;;;;;;5049588;28;20504;-78
2023/01/12 09:06:09;;;;;;;;;;;10.20;99.90;;;;;;5050662;28;19909;-78
2023/01/12 09:08:34;;;;;;;;;;;10.20;99.90;;;;;;5063403;28;19932;-77
2023/01/12 09:11:04;;;;;;;;;;;10.10;99.90;;;;;;5069153;28;19915;-78
2023/01/12 09:13:31;;;;;;;;;;;10.10;99.90;;;;;;5069920;28;19909;-77
2023/01/12 09:16:00;;;;;;;;;;;9.90;99.90;;;;;;5068921;28;19909;-78
2023/01/12 09:18:26;;;;;;;;;;;9.80;99.90;;;;;;5069801;28;19962;-79
2023/01/12 09:20:51;;;;;;;;;;;9.50;99.90;;;;;;5070412;28;20362;-79
2023/01/12 09:23:17;;;;;;;;;;;9.30;99.90;;;;;;5069905;28;20258;-78
2023/01/12 09:25:42;;;;;;;;;;;9.00;99.90;;;;;;5072465;28;19964;-80
2023/01/12 09:28:08;;;;;;;;;;;8.80;99.90;;;;;;5072324;28;19995;-81
2023/01/12 09:30:33;;;;;;;;;;;8.70;99.90;;;;;;5071854;28;19912;-80
2023/01/12 09:32:59;;;;;;;;;;;8.50;99.90;;;;;;5074038;28;19920;-82
2023/01/12 09:35:24;;;;;;;;;;;8.40;99.90;;;;;;5073055;28;19991;-82
2023/01/12 09:37:50;;;;;;;;;;;8.30;99.90;;;;;;5073798;28;20330;-81
2023/01/12 09:40:16;;;;;;;;;;;8.30;99.90;;;;;;5073817;28;19908;-78
2023/01/12 09:48:20;;;;;;;;;;;8.10;99.90;;;;;;5055752;28;19916;-80
2023/01/12 09:50:51;;;;;;;;;;;8.10;99.90;;;;;;5053075;28;19909;-80
2023/01/12 09:53:19;;;;;;;;;;;8.10;99.90;;;;;;5053339;28;20316;-79
2023/01/12 09:55:48;;;;;;;;;;;8.10;99.90;;;;;;5052891;28;19936;-80
2023/01/12 09:58:22;;;;;;;;;;;8.10;99.90;;;;;;5053645;28;19913;-79
2023/01/12 10:00:49;;;;;;;;;;;8.20;99.90;;;;;;5058034;28;19961;-79
2023/01/12 10:03:23;;;;;;;;;;;8.20;99.90;;;;;;5063913;28;19920;-79
2023/01/12 10:05:53;;;;;;;;;;;8.20;99.90;;;;;;5063410;28;20381;-78
2023/01/12 10:08:26;;;;;;;;;;;8.10;99.90;;;;;;5061955;28;19954;-80
2023/01/12 10:11:10;;;;;;;;;;;8.20;99.90;;;;;;5071033;28;20362;-79
2023/01/12 10:13:47;;;;;;;;;;;8.30;99.90;;;;;;5072969;28;19919;-78
2023/01/12 10:16:21;;;;;;;;;;;8.40;99.90;;;;;;5073684;28;19920;-78
2023/01/12 10:18:47;;;;;;;;;;;8.50;99.90;;;;;;5071845;28;19912;-79
2023/01/12 10:21:13;;;;;;;;;;;8.50;99.90;;;;;;5073050;28;19964;-78
2023/01/12 10:23:38;;;;;;;;;;;8.70;99.90;;;;;;5072134;28;19917;-78
2023/01/12 10:26:12;;;;;;;;;;;8.70;99.90;;;;;;5072714;28;19908;-80
2023/01/12 10:28:42;;;;;;;;;;;8.80;99.90;;;;;;5071150;28;19914;-79
2023/01/12 10:31:11;;;;;;;;;;;9.00;99.90;;;;;;5073491;28;19914;-84
2023/01/12 10:33:37;;;;;;;;;;;8.90;99.90;;;;;;5072476;28;19912;-82
2023/01/12 10:36:10;;;;;;;;;;;8.60;99.90;;;;;;5071588;28;19909;-80
2023/01/12 10:38:38;;;;;;;;;;;8.40;99.90;;;;;;5072544;28;19930;-80
2023/01/12 10:41:09;;;;;;;;;;;8.30;99.90;;;;;;5069116;28;19932;-83
2023/01/12 10:43:39;;;;;;;;;;;8.20;99.90;;;;;;5060464;28;20417;-82
2023/01/12 10:46:12;;;;;;;;;;;8.20;99.90;;;;;;5063885;28;19999;-81
2023/01/12 10:48:38;;;;;;;;;;;8.30;99.90;;;;;;5058165;28;19913;-81
2023/01/12 10:51:05;;;;;;;;;;;8.30;99.90;;;;;;5051170;28;20007;-80
2023/01/12 10:53:34;;;;;;;;;;;8.30;99.90;;;;;;5051988;28;19921;-80
2023/01/12 10:56:09;;;;;;;;;;;8.30;99.90;;;;;;5051162;28;19959;-80
2023/01/12 10:58:34;;;;;;;;;;;8.50;99.90;;;;;;5051866;28;19909;-80
2023/01/12 11:01:00;;;;;;;;;;;8.50;99.90;;;;;;5052451;28;20330;-80
2023/01/12 11:03:40;;;;;;;;;;;8.60;99.90;;;;;;5051940;28;19916;-84
2023/01/12 11:06:21;;;;;;;;;;;8.60;99.90;;;;;;5051231;28;20354;-78
2023/01/12 11:08:47;;;;;;;;;;;8.70;99.90;;;;;;5051369;28;19999;-77
2023/01/12 11:11:39;;;;;;;;;;;8.70;99.90;;;;;;5050004;28;20388;-78
2023/01/12 11:14:04;;;;;;;;;;;8.80;99.90;;;;;;5050067;28;19952;-78
2023/01/12 11:16:31;;;;;;;;;;;8.90;99.90;;;;;;5051051;28;19916;-79
2023/01/12 11:18:57;;;;;;;;;;;9.10;99.90;;;;;;5051564;28;19909;-78
2023/01/12 11:21:24;;;;;;;;;;;9.10;99.90;;;;;;5050094;28;19923;-78
2023/01/12 11:23:55;;;;;;;;;;;9.20;99.90;;;;;;5054369;28;19920;-78
2023/01/12 11:26:29;;;;;;;;;;;9.20;99.90;;;;;;5071304;28;19920;-79
2023/01/12 11:28:58;;;;;;;;;;;9.20;99.90;;;;;;5071116;28;19915;-82
2023/01/12 11:31:27;;;;;;;;;;;9.10;99.90;;;;;;5070033;28;20319;-80
2023/01/12 11:34:02;;;;;;;;;;;8.70;99.90;;;;;;5071196;28;19912;-78
2023/01/12 11:36:39;;;;;;;;;;;8.50;99.90;;;;;;5070986;28;20019;-85
2023/01/12 11:39:07;;;;;;;;;;;8.30;99.90;;;;;;5070762;28;20276;-81
2023/01/12 11:44:42;;;;;;;;;;;8.00;99.90;;;;;;5069011;28;20281;-79
2023/01/12 11:47:14;;;;;;;;;;;8.00;99.90;;;;;;5070021;28;20011;-79
2023/01/12 11:49:46;;;;;;;;;;;8.10;99.90;;;;;;5069406;28;19908;-78
2023/01/12 11:52:14;;;;;;;;;;;8.10;99.90;;;;;;5067963;28;19920;-78
2023/01/12 11:54:39;;;;;;;;;;;8.20;99.90;;;;;;5069867;28;19912;-79
2023/01/12 11:57:28;;;;;;;;;;;8.30;99.90;;;;;;5070141;28;19915;-84
2023/01/12 11:59:56;;;;;;;;;;;8.30;99.90;;;;;;5068361;28;19916;-78
2023/01/12 12:02:31;;;;;;;;;;;8.40;99.90;;;;;;5070287;28;19978;-85
2023/01/12 12:05:07;;;;;;;;;;;8.50;99.90;;;;;;5064762;28;19913;-77
2023/01/12 12:07:36;;;;;;;;;;;8.50;99.90;;;;;;5070751;28;20341;-77
2023/01/12 12:10:21;;;;;;;;;;;8.60;99.90;;;;;;5070994;28;19920;-77
2023/01/12 12:13:02;;;;;;;;;;;8.60;99.90;;;;;;5070623;28;19919;-78
2023/01/12 12:15:33;;;;;;;;;;;8.60;99.90;;;;;;5070925;28;19915;-81
2023/01/12 12:17:59;;;;;;;;;;;8.60;99.90;;;;;;5071055;28;19916;-77
2023/01/12 12:20:33;;;;;;;;;;;8.60;99.90;;;;;;5071066;28;20222;-77
2023/01/12 12:23:11;;;;;;;;;;;8.60;99.90;;;;;;5070874;28;19917;-76
2023/01/12 12:25:46;;;;;;;;;;;8.70;99.90;;;;;;5070272;28;19909;-77
2023/01/12 12:28:19;;;;;;;;;;;8.70;99.90;;;;;;5070603;28;20247;-76
2023/01/12 12:30:44;;;;;;;;;;;8.70;99.90;;;;;;5070632;28;19912;-76
2023/01/12 12:33:13;;;;;;;;;;;8.70;99.90;;;;;;5070536;28;19927;-77
2023/01/12 12:35:47;;;;;;;;;;;8.70;99.90;;;;;;5064240;28;19921;-77
2023/01/12 12:38:22;;;;;;;;;;;8.70;99.90;;;;;;5060947;28;20003;-76
2023/01/12 12:46:34;;;;;;;;;;;8.70;99.90;;;;;;5051030;28;19969;-77
2023/01/12 12:49:04;;;;;;;;;;;8.80;99.90;;;;;;5051265;28;19908;-76
2023/01/12 12:51:31;;;;;;;;;;;8.80;99.90;;;;;;5049431;28;19928;-77
2023/01/12 12:53:57;;;;;;;;;;;8.80;99.90;;;;;;5048823;28;20001;-78
2023/01/12 12:56:23;;;;;;;;;;;8.80;99.90;;;;;;5050406;28;19932;-77
2023/01/12 12:58:49;;;;;;;;;;;8.70;99.90;;;;;;5052601;28;19916;-77
2023/01/12 13:01:23;;;;;;;;;;;8.70;99.90;;;;;;5054522;28;19913;-76
2023/01/12 13:03:50;;;;;;;;;;;8.70;99.90;;;;;;5062928;28;19921;-76
2023/01/12 13:06:33;;;;;;;;;;;8.70;99.90;;;;;;5062705;28;19995;-77
2023/01/12 13:09:04;;;;;;;;;;;8.60;99.90;;;;;;5064571;28;19970;-77
2023/01/12 13:11:45;;;;;;;;;;;8.50;99.90;;;;;;5062718;28;19909;-77
2023/01/12 13:14:23;;;;;;;;;;;8.50;99.90;;;;;;5059917;28;20437;-77
2023/01/12 13:16:50;;;;;;;;;;;8.40;99.90;;;;;;5062359;28;19920;-77
2023/01/12 13:19:33;;;;;;;;;;;8.30;99.90;;;;;;5063933;28;19913;-77
2023/01/12 13:22:16;;;;;;;;;;;8.40;99.90;;;;;;5060845;28;20022;-77
2023/01/12 13:24:42;;;;;;;;;;;8.30;99.90;;;;;;5061555;28;19920;-77
2023/01/12 13:27:26;;;;;;;;;;;8.40;99.90;;;;;;5062970;28;19924;-78
2023/01/12 13:30:12;;;;;;;;;;;8.40;99.90;;;;;;5071512;28;19962;-78
2023/01/12 13:32:41;;;;;;;;;;;8.40;99.90;;;;;;5071851;28;19912;-77
2023/01/12 13:35:22;;;;;;;;;;;8.30;99.90;;;;;;5068947;28;20012;-76
2023/01/12 13:37:52;;;;;;;;;;;8.20;99.90;;;;;;5083592;28;20370;-77
2023/01/12 13:40:19;;;;;;;;;;;8.30;99.90;;;;;;5055837;28;19940;-78
2023/01/12 13:45:30;;;;;;;;;;;8.30;99.90;;;;;;5061630;28;20019;-77
2023/01/12 13:47:56;;;;;;;;;;;8.40;99.90;;;;;;5060031;28;19919;-76
2023/01/12 13:50:23;;;;;;;;;;;8.40;99.90;;;;;;5064529;28;19912;-77
2023/01/12 13:52:59;;;;;;;;;;;8.40;99.90;;;;;;5060938;28;19921;-76
2023/01/12 13:55:27;;;;;;;;;;;8.40;99.90;;;;;;5052264;28;19909;-76
2023/01/12 13:58:00;;;;;;;;;;;8.30;99.90;;;;;;5071332;28;20298;-76
2023/01/12 14:00:26;;;;;;;;;;;8.20;99.90;;;;;;5073706;28;20373;-76
2023/01/12 14:02:52;;;;;;;;;;;8.10;99.90;;;;;;5073025;28;19916;-77
2023/01/12 14:05:30;;;;;;;;;;;8.20;99.90;;;;;;5073000;28;20006;-76
2023/01/12 14:07:58;;;;;;;;;;;8.30;99.90;;;;;;5072929;28;19927;-76
2023/01/12 14:10:26;;;;;;;;;;;8.30;99.90;;;;;;5072865;28;19936;-77
2023/01/12 14:12:58;;;;;;;;;;;8.40;99.90;;;;;;5072819;28;19975;-76
2023/01/12 14:18:19;;;;;;;;;;;8.60;99.90;;;;;;5073594;28;19915;-76
2023/01/12 14:20:45;;;;;;;;;;;8.60;99.90;;;;;;5072817;28;19912;-77
2023/01/12 14:23:26;;;;;;;;;;;8.70;99.90;;;;;;5073457;28;19917;-76
2023/01/12 14:26:03;;;;;;;;;;;8.70;99.90;;;;;;5052902;28;20342;-76
2023/01/12 14:28:29;;;;;;;;;;;8.70;99.90;;;;;;5056496;28;20427;-77
2023/01/12 14:30:55;;;;;;;;;;;8.80;99.90;;;;;;5054677;28;19913;-76
2023/01/12 14:33:22;;;;;;;;;;;8.80;99.90;;;;;;5053541;28;19913;-76
2023/01/12 14:35:50;;;;;;;;;;;8.80;99.90;;;;;;5052658;28;20000;-75
2023/01/12 14:38:17;;;;;;;;;;;8.80;99.90;;;;;;5051642;28;20265;-76
2023/01/12 14:40:54;;;;;;;;;;;8.70;99.90;;;;;;5052325;28;20254;-79
2023/01/12 14:48:39;;;;;;;;;;;7.60;99.90;;;;;;5053498;28;20023;-79
2023/01/12 14:51:20;;;;;;;;;;;7.30;99.90;;;;;;5052275;28;19960;-78
2023/01/12 14:53:46;;;;;;;;;;;7.20;99.90;;;;;;5052190;28;20354;-78
2023/01/12 14:56:12;;;;;;;;;;;7.10;99.90;;;;;;5052683;28;20008;-77
2023/01/12 14:58:37;;;;;;;;;;;7.10;99.90;;;;;;5052782;28;19952;-79
2023/01/12 15:01:03;;;;;;;;;;;7.00;99.90;;;;;;5065651;28;19916;-80
2023/01/12 15:03:30;;;;;;;;;;;7.00;99.90;;;;;;5070657;28;19916;-79
2023/01/12 15:05:56;;;;;;;;;;;7.00;99.90;;;;;;5071606;28;19909;-79
2023/01/12 15:08:25;;;;;;;;;;;7.10;99.90;;;;;;5071776;28;19908;-80
2023/01/12 15:11:07;;;;;;;;;;;7.20;99.90;;;;;;5071387;28;19909;-79
2023/01/12 15:13:34;;;;;;;;;;;7.30;99.90;;;;;;5071607;28;19995;-78
2023/01/12 15:27:05;;;;;;;;;;;7.70;99.90;;;;;;5071178;28;19935;-79
2023/01/12 15:29:30;;;;;;;;;;;7.80;99.90;;;;;;5071385;28;19940;-77
2023/01/12 15:31:56;;;;;;;;;;;7.80;99.90;;;;;;5070631;28;20005;-78